Fdny M-3 — WDF9250 — position and weather

sailwx.info

Track history (hours):
 
Tides and Currents Weather Stations Pressure Air Temp Water Temp Dewpoint Dewpoint Depression Visibility Wind Speed Wind Dir Waves Ship Positions

Fdny M-3

Owner: NEW YORK CITY FIRE DEPT, BROOKLYN, NY. More information available from US FCC via Universal Licensing System.

Last reported at 2017-Oct-27 17:43 UTC. Time now 2017-Dec-18 03:26 UTC.
Position N 40°42' W 073°58'.
Warning: this ship's position is 51 days out of date.

Length 11 m.

Type: Law enforcement. MMSI: 367503220.

Date/timePositionNaut miles runAvg speedWind from/ knotsBaromVisibWave heightAir tempDewpointWater temp
2017-Oct-27 17:43N 40°42' W 073°58'4 2.4
2017-Oct-27 16:03N 40°46' W 073°57'243.9
2017-Oct-27 16:01N 40°45' W 073°58'3 6.1
2017-Oct-27 15:30N 40°42' W 074°00'1 2.2
2017-Oct-27 15:00N 40°43' W 073°59'0 0.8
2017-Oct-27 14:30N 40°42' W 073°58'8 0.5
2017-Oct-26 22:26N 40°35' W 073°56'5 7.0
2017-Oct-26 21:46N 40°35' W 073°50'518.2
2017-Oct-26 21:30N 40°33' W 073°56'4 0.2
2017-Oct-25 22:40N 40°35' W 073°53'1 1.4
2017-Oct-25 22:01N 40°35' W 073°53'116.2
2017-Oct-25 21:58N 40°34' W 073°54'510.7
2017-Oct-25 21:30N 40°35' W 074°00'712.1
2017-Oct-25 20:54N 40°28' W 074°01'14 3.1
2017-Oct-25 16:28N 40°39' W 073°50'3 4.1
2017-Oct-25 15:40N 40°37' W 073°46'423.5
2017-Oct-25 15:30N 40°35' W 073°50'0 0.0
2017-Oct-24 21:12N 40°35' W 073°50'726.8
2017-Oct-24 20:56N 40°34' W 073°60'7 0.3
2017-Oct-23 18:53N 40°38' W 073°52'3 0.8
2017-Oct-23 14:51N 40°35' W 073°51'4 2.0
2017-Oct-23 12:41N 40°34' W 073°56'529.6
2017-Oct-23 12:30N 40°36' W 074°03'5 0.6
2017-Oct-23 03:03N 40°35' W 073°56'0 0.0
2017-Oct-23 02:55N 40°35' W 073°56'0 0.0
2017-Oct-23 02:17N 40°35' W 073°56'0 0.0
2017-Oct-23 02:00N 40°35' W 073°56'0 0.0
2017-Oct-23 01:30N 40°35' W 073°56'0 0.0
2017-Oct-23 00:54N 40°35' W 073°56'2 1.2
2017-Oct-22 23:09N 40°34' W 073°53'3 4.2
2017-Oct-22 22:24N 40°38' W 073°54'3 8.2
2017-Oct-22 22:00N 40°34' W 073°56'2 0.6
2017-Oct-22 18:48N 40°34' W 073°53'6 3.2
2017-Oct-22 17:02N 40°40' W 073°50'410.2
2017-Oct-22 16:37N 40°35' W 073°49'831.0
2017-Oct-22 16:22N 40°34' W 073°60'3 5.0
2017-Oct-22 15:51N 40°32' W 074°03'3 9.5
2017-Oct-22 15:29N 40°34' W 073°59'10 9.6
2017-Oct-22 14:28N 40°35' W 073°46'7 0.5
2017-Oct-21 23:30N 40°34' W 073°55'5 4.0
2017-Oct-21 22:08N 40°39' W 073°50'528.0
2017-Oct-21 21:57N 40°34' W 073°54'4 1.2
2017-Oct-21 19:03N 40°32' W 073°57'232.4
2017-Oct-21 18:59N 40°31' W 073°59'2 3.6
2017-Oct-21 18:29N 40°29' W 074°00'6 8.1
2017-Oct-21 17:45N 40°34' W 073°56'514.4
2017-Oct-21 17:25N 40°31' W 073°51'1 0.6
2017-Oct-21 15:53N 40°31' W 073°50'5 0.1
2017-Oct-20 00:14N 40°36' W 073°53'1 0.6
2017-Oct-19 22:38N 40°35' W 073°53'2 4.8
2017-Oct-19 22:12N 40°34' W 073°50'4 1.3
2017-Oct-19 19:26N 40°34' W 073°55'0 0.6
2017-Oct-19 18:53N 40°34' W 073°54'4 2.3
2017-Oct-19 17:09N 40°35' W 073°60'6 5.1
2017-Oct-19 16:04N 40°33' W 073°52'3 1.0
2017-Oct-19 12:48N 40°35' W 073°56'3 0.2
2017-Oct-18 22:08N 40°35' W 073°52'3 0.8
2017-Oct-18 18:56N 40°36' W 073°49'6 0.3
2017-Oct-17 21:56N 40°34' W 073°57'3 7.4
2017-Oct-17 21:30N 40°32' W 074°00'1110.1
2017-Oct-17 20:28N 40°36' W 073°47'510.4
2017-Oct-17 20:00N 40°37' W 073°54'1 1.6
2017-Oct-17 19:24N 40°36' W 073°54'0 0.7
2017-Oct-17 18:56N 40°36' W 073°54'  
Track history (hours):
 
Tides and Currents Weather Stations Pressure Air Temp Water Temp Dewpoint Dewpoint Depression Visibility Wind Speed Wind Dir Waves Ship Positions

Fdny M-3

Owner: NEW YORK CITY FIRE DEPT, BROOKLYN, NY. More information available from US FCC via Universal Licensing System.

Last reported at 2017-Oct-27 17:43 UTC. Time now 2017-Dec-18 03:26 UTC.
Position N 40°42' W 073°58'.
Warning: this ship's position is 51 days out of date.

Length 11 m.

Type: Law enforcement. MMSI: 367503220.

Date/timePositionNaut miles runAvg speedWind from/ knotsBaromVisibWave heightAir tempDewpointWater temp
2017-Oct-27 17:43N 40°42' W 073°58'4 2.4
2017-Oct-27 16:03N 40°46' W 073°57'243.9
2017-Oct-27 16:01N 40°45' W 073°58'3 6.1
2017-Oct-27 15:30N 40°42' W 074°00'1 2.2
2017-Oct-27 15:00N 40°43' W 073°59'0 0.8
2017-Oct-27 14:30N 40°42' W 073°58'8 0.5
2017-Oct-26 22:26N 40°35' W 073°56'5 7.0
2017-Oct-26 21:46N 40°35' W 073°50'518.2
2017-Oct-26 21:30N 40°33' W 073°56'4 0.2
2017-Oct-25 22:40N 40°35' W 073°53'1 1.4
2017-Oct-25 22:01N 40°35' W 073°53'116.2
2017-Oct-25 21:58N 40°34' W 073°54'510.7
2017-Oct-25 21:30N 40°35' W 074°00'712.1
2017-Oct-25 20:54N 40°28' W 074°01'14 3.1
2017-Oct-25 16:28N 40°39' W 073°50'3 4.1
2017-Oct-25 15:40N 40°37' W 073°46'423.5
2017-Oct-25 15:30N 40°35' W 073°50'0 0.0
2017-Oct-24 21:12N 40°35' W 073°50'726.8
2017-Oct-24 20:56N 40°34' W 073°60'7 0.3
2017-Oct-23 18:53N 40°38' W 073°52'3 0.8
2017-Oct-23 14:51N 40°35' W 073°51'4 2.0
2017-Oct-23 12:41N 40°34' W 073°56'529.6
2017-Oct-23 12:30N 40°36' W 074°03'5 0.6
2017-Oct-23 03:03N 40°35' W 073°56'0 0.0
2017-Oct-23 02:55N 40°35' W 073°56'0 0.0
2017-Oct-23 02:17N 40°35' W 073°56'0 0.0
2017-Oct-23 02:00N 40°35' W 073°56'0 0.0
2017-Oct-23 01:30N 40°35' W 073°56'0 0.0
2017-Oct-23 00:54N 40°35' W 073°56'2 1.2
2017-Oct-22 23:09N 40°34' W 073°53'3 4.2
2017-Oct-22 22:24N 40°38' W 073°54'3 8.2
2017-Oct-22 22:00N 40°34' W 073°56'2 0.6
2017-Oct-22 18:48N 40°34' W 073°53'6 3.2
2017-Oct-22 17:02N 40°40' W 073°50'410.2
2017-Oct-22 16:37N 40°35' W 073°49'831.0
2017-Oct-22 16:22N 40°34' W 073°60'3 5.0
2017-Oct-22 15:51N 40°32' W 074°03'3 9.5
2017-Oct-22 15:29N 40°34' W 073°59'10 9.6
2017-Oct-22 14:28N 40°35' W 073°46'7 0.5
2017-Oct-21 23:30N 40°34' W 073°55'5 4.0
2017-Oct-21 22:08N 40°39' W 073°50'528.0
2017-Oct-21 21:57N 40°34' W 073°54'4 1.2
2017-Oct-21 19:03N 40°32' W 073°57'232.4
2017-Oct-21 18:59N 40°31' W 073°59'2 3.6
2017-Oct-21 18:29N 40°29' W 074°00'6 8.1
2017-Oct-21 17:45N 40°34' W 073°56'514.4
2017-Oct-21 17:25N 40°31' W 073°51'1 0.6
2017-Oct-21 15:53N 40°31' W 073°50'5 0.1
2017-Oct-20 00:14N 40°36' W 073°53'1 0.6
2017-Oct-19 22:38N 40°35' W 073°53'2 4.8
2017-Oct-19 22:12N 40°34' W 073°50'4 1.3
2017-Oct-19 19:26N 40°34' W 073°55'0 0.6
2017-Oct-19 18:53N 40°34' W 073°54'4 2.3
2017-Oct-19 17:09N 40°35' W 073°60'6 5.1
2017-Oct-19 16:04N 40°33' W 073°52'3 1.0
2017-Oct-19 12:48N 40°35' W 073°56'3 0.2
2017-Oct-18 22:08N 40°35' W 073°52'3 0.8
2017-Oct-18 18:56N 40°36' W 073°49'6 0.3
2017-Oct-17 21:56N 40°34' W 073°57'3 7.4
2017-Oct-17 21:30N 40°32' W 074°00'1110.1
2017-Oct-17 20:28N 40°36' W 073°47'510.4
2017-Oct-17 20:00N 40°37' W 073°54'1 1.6
2017-Oct-17 19:24N 40°36' W 073°54'0 0.7
2017-Oct-17 18:56N 40°36' W 073°54'  

Dump ship's entire track history